sensor_id;sensor_type;location;lat;lon;timestamp;P1;durP1;ratioP1;P2;durP2;ratioP2
63653;SDS011;49809;47.418;19.080;2023-11-21T00:05:57;30.00;;;14.13;;
63653;SDS011;49809;47.418;19.080;2023-11-21T00:09:02;28.33;;;14.15;;
63653;SDS011;49809;47.418;19.080;2023-11-21T00:12:06;25.37;;;13.25;;
63653;SDS011;49809;47.418;19.080;2023-11-21T00:15:55;25.02;;;12.80;;
63653;SDS011;49809;47.418;19.080;2023-11-21T00:19:28;27.85;;;13.23;;
63653;SDS011;49809;47.418;19.080;2023-11-21T00:22:35;25.85;;;13.70;;
63653;SDS011;49809;47.418;19.080;2023-11-21T00:25:40;27.35;;;13.10;;
63653;SDS011;49809;47.418;19.080;2023-11-21T00:28:47;23.98;;;13.25;;
63653;SDS011;49809;47.418;19.080;2023-11-21T00:31:54;26.00;;;13.55;;
63653;SDS011;49809;47.418;19.080;2023-11-21T00:34:57;31.27;;;14.73;;
63653;SDS011;49809;47.418;19.080;2023-11-21T00:38:03;32.93;;;15.47;;
63653;SDS011;49809;47.418;19.080;2023-11-21T00:41:28;32.00;;;14.80;;
63653;SDS011;49809;47.418;19.080;2023-11-21T00:45:11;34.38;;;16.42;;
63653;SDS011;49809;47.418;19.080;2023-11-21T00:48:17;30.80;;;17.37;;
63653;SDS011;49809;47.418;19.080;2023-11-21T00:51:46;36.15;;;17.00;;
63653;SDS011;49809;47.418;19.080;2023-11-21T00:54:56;37.00;;;17.25;;
63653;SDS011;49809;47.418;19.080;2023-11-21T00:58:07;28.38;;;15.52;;
63653;SDS011;49809;47.418;19.080;2023-11-21T01:01:46;28.12;;;15.23;;
63653;SDS011;49809;47.418;19.080;2023-11-21T01:05:22;30.98;;;15.50;;
63653;SDS011;49809;47.418;19.080;2023-11-21T01:08:27;33.85;;;16.37;;
63653;SDS011;49809;47.418;19.080;2023-11-21T01:11:34;31.40;;;16.45;;
63653;SDS011;49809;47.418;19.080;2023-11-21T01:14:43;29.92;;;16.52;;
63653;SDS011;49809;47.418;19.080;2023-11-21T01:17:50;26.83;;;15.00;;
63653;SDS011;49809;47.418;19.080;2023-11-21T01:20:55;25.30;;;14.48;;
63653;SDS011;49809;47.418;19.080;2023-11-21T01:23:59;28.92;;;15.25;;
63653;SDS011;49809;47.418;19.080;2023-11-21T01:27:27;30.90;;;15.25;;
63653;SDS011;49809;47.418;19.080;2023-11-21T01:30:40;25.85;;;14.48;;
63653;SDS011;49809;47.418;19.080;2023-11-21T01:34:07;30.35;;;15.85;;
63653;SDS011;49809;47.418;19.080;2023-11-21T01:37:31;29.85;;;15.32;;
63653;SDS011;49809;47.418;19.080;2023-11-21T01:41:10;31.58;;;15.23;;
63653;SDS011;49809;47.418;19.080;2023-11-21T01:44:20;25.98;;;14.65;;
63653;SDS011;49809;47.418;19.080;2023-11-21T01:48:07;25.15;;;13.82;;
63653;SDS011;49809;47.418;19.080;2023-11-21T01:55:20;26.17;;;13.52;;
63653;SDS011;49809;47.418;19.080;2023-11-21T01:58:36;28.30;;;14.20;;
63653;SDS011;49809;47.418;19.080;2023-11-21T02:04:47;26.33;;;13.43;;
63653;SDS011;49809;47.418;19.080;2023-11-21T02:08:13;27.62;;;13.77;;
63653;SDS011;49809;47.418;19.080;2023-11-21T02:11:22;27.10;;;13.77;;
63653;SDS011;49809;47.418;19.080;2023-11-21T02:14:46;27.08;;;14.00;;
63653;SDS011;49809;47.418;19.080;2023-11-21T02:18:20;25.40;;;14.55;;
63653;SDS011;49809;47.418;19.080;2023-11-21T02:21:59;28.20;;;14.40;;
63653;SDS011;49809;47.418;19.080;2023-11-21T02:25:35;28.05;;;14.63;;
63653;SDS011;49809;47.418;19.080;2023-11-21T02:28:59;30.85;;;14.57;;
63653;SDS011;49809;47.418;19.080;2023-11-21T02:32:45;26.55;;;14.10;;
63653;SDS011;49809;47.418;19.080;2023-11-21T02:36:00;27.35;;;15.00;;
63653;SDS011;49809;47.418;19.080;2023-11-21T02:39:45;36.65;;;15.55;;
63653;SDS011;49809;47.418;19.080;2023-11-21T02:43:10;24.85;;;14.43;;
63653;SDS011;49809;47.418;19.080;2023-11-21T02:46:22;27.67;;;13.35;;
63653;SDS011;49809;47.418;19.080;2023-11-21T02:49:26;23.20;;;13.07;;
63653;SDS011;49809;47.418;19.080;2023-11-21T02:52:45;22.87;;;13.05;;
63653;SDS011;49809;47.418;19.080;2023-11-21T02:55:49;24.75;;;12.37;;
63653;SDS011;49809;47.418;19.080;2023-11-21T02:59:37;26.25;;;12.75;;
63653;SDS011;49809;47.418;19.080;2023-11-21T03:02:43;26.13;;;13.30;;
63653;SDS011;49809;47.418;19.080;2023-11-21T03:05:48;23.05;;;12.80;;
63653;SDS011;49809;47.418;19.080;2023-11-21T03:09:24;20.52;;;12.37;;
63653;SDS011;49809;47.418;19.080;2023-11-21T03:13:00;24.37;;;13.30;;
63653;SDS011;49809;47.418;19.080;2023-11-21T03:16:11;22.42;;;12.13;;
63653;SDS011;49809;47.418;19.080;2023-11-21T03:19:16;26.05;;;13.45;;
63653;SDS011;49809;47.418;19.080;2023-11-21T03:23:06;22.70;;;12.70;;
63653;SDS011;49809;47.418;19.080;2023-11-21T03:26:31;19.92;;;11.98;;
63653;SDS011;49809;47.418;19.080;2023-11-21T03:29:55;25.48;;;12.70;;
63653;SDS011;49809;47.418;19.080;2023-11-21T03:33:18;21.48;;;12.57;;
63653;SDS011;49809;47.418;19.080;2023-11-21T03:36:43;22.75;;;12.75;;
63653;SDS011;49809;47.418;19.080;2023-11-21T03:39:50;25.98;;;13.77;;
63653;SDS011;49809;47.418;19.080;2023-11-21T03:43:14;26.65;;;14.13;;
63653;SDS011;49809;47.418;19.080;2023-11-21T03:47:04;24.67;;;12.95;;
63653;SDS011;49809;47.418;19.080;2023-11-21T03:50:15;24.65;;;13.52;;
63653;SDS011;49809;47.418;19.080;2023-11-21T03:56:49;23.10;;;12.63;;
63653;SDS011;49809;47.418;19.080;2023-11-21T04:00:13;21.42;;;12.70;;
63653;SDS011;49809;47.418;19.080;2023-11-21T04:03:57;27.37;;;13.30;;
63653;SDS011;49809;47.418;19.080;2023-11-21T04:07:00;23.40;;;13.07;;
63653;SDS011;49809;47.418;19.080;2023-11-21T04:10:12;24.33;;;13.05;;
63653;SDS011;49809;47.418;19.080;2023-11-21T04:13:24;23.58;;;12.73;;
63653;SDS011;49809;47.418;19.080;2023-11-21T04:16:31;22.95;;;13.40;;
63653;SDS011;49809;47.418;19.080;2023-11-21T04:19:34;24.70;;;12.85;;
63653;SDS011;49809;47.418;19.080;2023-11-21T04:22:43;30.65;;;13.00;;
63653;SDS011;49809;47.418;19.080;2023-11-21T04:26:08;23.38;;;13.13;;
63653;SDS011;49809;47.418;19.080;2023-11-21T04:29:17;22.50;;;13.00;;
63653;SDS011;49809;47.418;19.080;2023-11-21T04:32:34;25.80;;;12.75;;
63653;SDS011;49809;47.418;19.080;2023-11-21T04:35:40;22.50;;;12.47;;
63653;SDS011;49809;47.418;19.080;2023-11-21T04:39:11;23.90;;;12.32;;
63653;SDS011;49809;47.418;19.080;2023-11-21T04:42:16;23.23;;;12.80;;
63653;SDS011;49809;47.418;19.080;2023-11-21T04:45:20;23.85;;;13.13;;
63653;SDS011;49809;47.418;19.080;2023-11-21T04:48:32;25.88;;;13.82;;
63653;SDS011;49809;47.418;19.080;2023-11-21T04:51:41;28.30;;;14.73;;
63653;SDS011;49809;47.418;19.080;2023-11-21T04:55:34;25.98;;;13.43;;
63653;SDS011;49809;47.418;19.080;2023-11-21T04:58:58;29.27;;;14.60;;
63653;SDS011;49809;47.418;19.080;2023-11-21T05:02:36;27.48;;;13.73;;
63653;SDS011;49809;47.418;19.080;2023-11-21T05:10:19;28.83;;;13.57;;
63653;SDS011;49809;47.418;19.080;2023-11-21T05:13:43;34.22;;;16.98;;
63653;SDS011;49809;47.418;19.080;2023-11-21T05:16:47;25.27;;;14.55;;
63653;SDS011;49809;47.418;19.080;2023-11-21T05:20:02;24.80;;;14.35;;
63653;SDS011;49809;47.418;19.080;2023-11-21T05:23:27;32.50;;;15.95;;
63653;SDS011;49809;47.418;19.080;2023-11-21T05:26:34;32.92;;;18.30;;
63653;SDS011;49809;47.418;19.080;2023-11-21T05:29:43;37.38;;;19.40;;
63653;SDS011;49809;47.418;19.080;2023-11-21T05:33:09;40.45;;;20.95;;
63653;SDS011;49809;47.418;19.080;2023-11-21T05:36:33;41.58;;;21.58;;
63653;SDS011;49809;47.418;19.080;2023-11-21T05:39:37;33.08;;;16.95;;
63653;SDS011;49809;47.418;19.080;2023-11-21T05:43:01;31.48;;;14.87;;
63653;SDS011;49809;47.418;19.080;2023-11-21T05:46:31;28.87;;;15.00;;
63653;SDS011;49809;47.418;19.080;2023-11-21T05:49:59;25.85;;;14.95;;
63653;SDS011;49809;47.418;19.080;2023-11-21T05:53:02;25.25;;;14.18;;
63653;SDS011;49809;47.418;19.080;2023-11-21T05:56:29;30.80;;;14.45;;
63653;SDS011;49809;47.418;19.080;2023-11-21T05:59:33;29.75;;;14.35;;
63653;SDS011;49809;47.418;19.080;2023-11-21T06:02:45;27.95;;;14.55;;
63653;SDS011;49809;47.418;19.080;2023-11-21T06:06:11;25.50;;;13.82;;
63653;SDS011;49809;47.418;19.080;2023-11-21T06:09:47;26.80;;;14.57;;
63653;SDS011;49809;47.418;19.080;2023-11-21T06:13:26;28.75;;;14.35;;
63653;SDS011;49809;47.418;19.080;2023-11-21T06:16:54;28.15;;;14.93;;
63653;SDS011;49809;47.418;19.080;2023-11-21T06:20:02;31.50;;;15.18;;
63653;SDS011;49809;47.418;19.080;2023-11-21T06:23:36;26.17;;;14.48;;
63653;SDS011;49809;47.418;19.080;2023-11-21T06:26:43;31.48;;;15.38;;
63653;SDS011;49809;47.418;19.080;2023-11-21T06:29:48;27.48;;;14.70;;
63653;SDS011;49809;47.418;19.080;2023-11-21T06:33:13;27.70;;;15.27;;
63653;SDS011;49809;47.418;19.080;2023-11-21T06:36:19;28.67;;;16.67;;
63653;SDS011;49809;47.418;19.080;2023-11-21T06:39:47;35.80;;;16.50;;
63653;SDS011;49809;47.418;19.080;2023-11-21T06:42:55;36.47;;;19.33;;
63653;SDS011;49809;47.418;19.080;2023-11-21T06:46:01;33.50;;;18.37;;
63653;SDS011;49809;47.418;19.080;2023-11-21T06:49:25;25.25;;;12.13;;
63653;SDS011;49809;47.418;19.080;2023-11-21T06:52:49;23.40;;;9.90;;
63653;SDS011;49809;47.418;19.080;2023-11-21T06:56:28;23.87;;;10.38;;
63653;SDS011;49809;47.418;19.080;2023-11-21T06:59:56;23.95;;;9.75;;
63653;SDS011;49809;47.418;19.080;2023-11-21T07:03:00;20.25;;;9.98;;
63653;SDS011;49809;47.418;19.080;2023-11-21T07:07:04;20.85;;;8.95;;
63653;SDS011;49809;47.418;19.080;2023-11-21T07:10:10;16.87;;;9.35;;
63653;SDS011;49809;47.418;19.080;2023-11-21T07:13:49;18.00;;;8.95;;
63653;SDS011;49809;47.418;19.080;2023-11-21T07:16:52;20.88;;;8.27;;
63653;SDS011;49809;47.418;19.080;2023-11-21T07:20:17;18.73;;;8.25;;
63653;SDS011;49809;47.418;19.080;2023-11-21T07:23:21;15.55;;;7.87;;
63653;SDS011;49809;47.418;19.080;2023-11-21T07:26:27;14.32;;;7.72;;
63653;SDS011;49809;47.418;19.080;2023-11-21T07:29:31;15.25;;;7.68;;
63653;SDS011;49809;47.418;19.080;2023-11-21T07:32:44;15.20;;;7.47;;
63653;SDS011;49809;47.418;19.080;2023-11-21T07:36:11;18.15;;;8.18;;
63653;SDS011;49809;47.418;19.080;2023-11-21T07:39:16;18.00;;;8.77;;
63653;SDS011;49809;47.418;19.080;2023-11-21T07:42:45;19.67;;;11.52;;
63653;SDS011;49809;47.418;19.080;2023-11-21T07:45:48;21.12;;;10.82;;
63653;SDS011;49809;47.418;19.080;2023-11-21T07:48:54;24.50;;;11.07;;
63653;SDS011;49809;47.418;19.080;2023-11-21T07:52:20;23.12;;;11.45;;
63653;SDS011;49809;47.418;19.080;2023-11-21T07:55:47;22.52;;;10.93;;
63653;SDS011;49809;47.418;19.080;2023-11-21T07:58:56;21.05;;;10.52;;
63653;SDS011;49809;47.418;19.080;2023-11-21T08:02:01;20.65;;;11.07;;
63653;SDS011;49809;47.418;19.080;2023-11-21T08:05:05;24.10;;;11.38;;
63653;SDS011;49809;47.418;19.080;2023-11-21T08:08:42;25.52;;;11.60;;
63653;SDS011;49809;47.418;19.080;2023-11-21T08:11:48;27.48;;;13.23;;
63653;SDS011;49809;47.418;19.080;2023-11-21T08:15:10;22.42;;;12.50;;
63653;SDS011;49809;47.418;19.080;2023-11-21T08:18:20;22.55;;;13.05;;
63653;SDS011;49809;47.418;19.080;2023-11-21T08:21:25;24.98;;;12.70;;
63653;SDS011;49809;47.418;19.080;2023-11-21T08:24:52;29.58;;;14.02;;
63653;SDS011;49809;47.418;19.080;2023-11-21T08:27:59;29.58;;;14.38;;
63653;SDS011;49809;47.418;19.080;2023-11-21T08:31:04;22.37;;;12.25;;
63653;SDS011;49809;47.418;19.080;2023-11-21T08:34:07;26.48;;;14.73;;
63653;SDS011;49809;47.418;19.080;2023-11-21T08:37:46;23.35;;;13.35;;
63653;SDS011;49809;47.418;19.080;2023-11-21T08:40:50;26.30;;;14.40;;
63653;SDS011;49809;47.418;19.080;2023-11-21T08:44:16;29.17;;;15.05;;
63653;SDS011;49809;47.418;19.080;2023-11-21T08:47:20;29.87;;;15.10;;
63653;SDS011;49809;47.418;19.080;2023-11-21T08:50:24;32.75;;;16.05;;
63653;SDS011;49809;47.418;19.080;2023-11-21T08:53:38;25.35;;;13.88;;
63653;SDS011;49809;47.418;19.080;2023-11-21T08:56:43;25.83;;;15.02;;
63653;SDS011;49809;47.418;19.080;2023-11-21T08:59:46;36.10;;;16.27;;
63653;SDS011;49809;47.418;19.080;2023-11-21T09:02:50;27.37;;;14.38;;
63653;SDS011;49809;47.418;19.080;2023-11-21T09:05:55;30.08;;;14.07;;
63653;SDS011;49809;47.418;19.080;2023-11-21T09:09:00;27.45;;;13.23;;
63653;SDS011;49809;47.418;19.080;2023-11-21T09:12:09;26.75;;;13.62;;
63653;SDS011;49809;47.418;19.080;2023-11-21T09:15:14;24.30;;;11.40;;
63653;SDS011;49809;47.418;19.080;2023-11-21T09:18:50;23.45;;;12.63;;
63653;SDS011;49809;47.418;19.080;2023-11-21T09:22:26;27.58;;;13.00;;
63653;SDS011;49809;47.418;19.080;2023-11-21T09:25:30;30.52;;;15.02;;
63653;SDS011;49809;47.418;19.080;2023-11-21T09:28:34;31.87;;;15.38;;
63653;SDS011;49809;47.418;19.080;2023-11-21T09:32:23;38.10;;;15.60;;
63653;SDS011;49809;47.418;19.080;2023-11-21T09:36:16;37.65;;;15.85;;
63653;SDS011;49809;47.418;19.080;2023-11-21T09:39:40;42.50;;;18.12;;
63653;SDS011;49809;47.418;19.080;2023-11-21T09:43:17;42.00;;;20.98;;
63653;SDS011;49809;47.418;19.080;2023-11-21T09:46:21;38.72;;;19.27;;
63653;SDS011;49809;47.418;19.080;2023-11-21T09:50:09;26.25;;;15.50;;
63653;SDS011;49809;47.418;19.080;2023-11-21T09:53:35;21.62;;;12.65;;
63653;SDS011;49809;47.418;19.080;2023-11-21T09:57:11;22.48;;;13.35;;
63653;SDS011;49809;47.418;19.080;2023-11-21T10:00:41;27.45;;;13.38;;
63653;SDS011;49809;47.418;19.080;2023-11-21T10:04:04;27.83;;;13.23;;
63653;SDS011;49809;47.418;19.080;2023-11-21T10:07:56;27.23;;;12.82;;
63653;SDS011;49809;47.418;19.080;2023-11-21T10:11:45;25.65;;;12.27;;
63653;SDS011;49809;47.418;19.080;2023-11-21T10:15:14;25.90;;;13.68;;
63653;SDS011;49809;47.418;19.080;2023-11-21T10:18:42;28.52;;;13.93;;
63653;SDS011;49809;47.418;19.080;2023-11-21T10:22:21;42.45;;;19.87;;
63653;SDS011;49809;47.418;19.080;2023-11-21T10:25:55;43.95;;;19.50;;
63653;SDS011;49809;47.418;19.080;2023-11-21T10:29:41;25.67;;;13.43;;
63653;SDS011;49809;47.418;19.080;2023-11-21T10:37:20;30.95;;;13.10;;
63653;SDS011;49809;47.418;19.080;2023-11-21T10:40:48;26.52;;;13.00;;
63653;SDS011;49809;47.418;19.080;2023-11-21T10:44:28;26.52;;;12.82;;
63653;SDS011;49809;47.418;19.080;2023-11-21T10:47:54;39.47;;;16.45;;
63653;SDS011;49809;47.418;19.080;2023-11-21T10:51:34;41.15;;;18.60;;
63653;SDS011;49809;47.418;19.080;2023-11-21T10:55:01;41.08;;;19.58;;
63653;SDS011;49809;47.418;19.080;2023-11-21T10:58:20;32.58;;;17.30;;
63653;SDS011;49809;47.418;19.080;2023-11-21T11:01:30;29.83;;;13.98;;
63653;SDS011;49809;47.418;19.080;2023-11-21T11:04:55;31.25;;;14.93;;
63653;SDS011;49809;47.418;19.080;2023-11-21T11:08:23;28.05;;;12.13;;
63653;SDS011;49809;47.418;19.080;2023-11-21T11:11:31;23.52;;;10.95;;
63653;SDS011;49809;47.418;19.080;2023-11-21T11:14:34;24.55;;;11.70;;
63653;SDS011;49809;47.418;19.080;2023-11-21T11:17:48;22.60;;;11.80;;
63653;SDS011;49809;47.418;19.080;2023-11-21T11:21:01;20.42;;;11.70;;
63653;SDS011;49809;47.418;19.080;2023-11-21T11:27:54;20.70;;;10.52;;
63653;SDS011;49809;47.418;19.080;2023-11-21T11:31:40;20.65;;;10.07;;
63653;SDS011;49809;47.418;19.080;2023-11-21T11:35:34;17.42;;;7.93;;
63653;SDS011;49809;47.418;19.080;2023-11-21T11:38:54;20.27;;;7.95;;
63653;SDS011;49809;47.418;19.080;2023-11-21T11:42:08;13.38;;;7.10;;
63653;SDS011;49809;47.418;19.080;2023-11-21T11:45:18;13.13;;;6.70;;
63653;SDS011;49809;47.418;19.080;2023-11-21T11:48:27;13.65;;;6.70;;
63653;SDS011;49809;47.418;19.080;2023-11-21T11:51:31;11.45;;;5.55;;
63653;SDS011;49809;47.418;19.080;2023-11-21T11:54:37;10.53;;;5.73;;
63653;SDS011;49809;47.418;19.080;2023-11-21T11:57:41;13.10;;;5.93;;
63653;SDS011;49809;47.418;19.080;2023-11-21T12:01:11;11.15;;;5.93;;
63653;SDS011;49809;47.418;19.080;2023-11-21T12:04:26;13.48;;;6.03;;
63653;SDS011;49809;47.418;19.080;2023-11-21T12:07:53;15.30;;;5.90;;
63653;SDS011;49809;47.418;19.080;2023-11-21T12:11:06;12.07;;;6.22;;
63653;SDS011;49809;47.418;19.080;2023-11-21T12:18:39;12.30;;;6.40;;
63653;SDS011;49809;47.418;19.080;2023-11-21T12:21:42;14.50;;;6.43;;
63653;SDS011;49809;47.418;19.080;2023-11-21T12:25:20;11.47;;;6.53;;
63653;SDS011;49809;47.418;19.080;2023-11-21T12:28:32;14.55;;;6.32;;
63653;SDS011;49809;47.418;19.080;2023-11-21T12:31:57;14.07;;;6.10;;
63653;SDS011;49809;47.418;19.080;2023-11-21T12:35:05;12.07;;;5.87;;
63653;SDS011;49809;47.418;19.080;2023-11-21T12:38:10;14.13;;;5.95;;
63653;SDS011;49809;47.418;19.080;2023-11-21T12:41:32;13.20;;;6.75;;
63653;SDS011;49809;47.418;19.080;2023-11-21T12:48:23;13.13;;;7.32;;
63653;SDS011;49809;47.418;19.080;2023-11-21T12:51:31;16.92;;;7.65;;
63653;SDS011;49809;47.418;19.080;2023-11-21T12:54:35;21.05;;;8.00;;
63653;SDS011;49809;47.418;19.080;2023-11-21T12:57:40;17.45;;;7.87;;
63653;SDS011;49809;47.418;19.080;2023-11-21T13:00:47;16.65;;;8.25;;
63653;SDS011;49809;47.418;19.080;2023-11-21T13:04:11;20.52;;;8.73;;
63653;SDS011;49809;47.418;19.080;2023-11-21T13:07:16;16.12;;;8.38;;
63653;SDS011;49809;47.418;19.080;2023-11-21T13:10:24;15.27;;;7.72;;
63653;SDS011;49809;47.418;19.080;2023-11-21T13:13:32;17.35;;;8.23;;
63653;SDS011;49809;47.418;19.080;2023-11-21T13:16:41;16.37;;;7.95;;
63653;SDS011;49809;47.418;19.080;2023-11-21T13:19:53;15.93;;;8.25;;
63653;SDS011;49809;47.418;19.080;2023-11-21T13:23:18;17.85;;;8.63;;
63653;SDS011;49809;47.418;19.080;2023-11-21T13:30:54;21.33;;;8.73;;
63653;SDS011;49809;47.418;19.080;2023-11-21T13:33:58;16.45;;;8.52;;
63653;SDS011;49809;47.418;19.080;2023-11-21T13:37:27;17.15;;;8.70;;
63653;SDS011;49809;47.418;19.080;2023-11-21T13:40:30;18.60;;;8.50;;
63653;SDS011;49809;47.418;19.080;2023-11-21T13:43:35;18.50;;;9.50;;
63653;SDS011;49809;47.418;19.080;2023-11-21T13:46:42;19.62;;;9.45;;
63653;SDS011;49809;47.418;19.080;2023-11-21T13:49:48;18.23;;;9.30;;
63653;SDS011;49809;47.418;19.080;2023-11-21T13:52:52;16.15;;;9.45;;
63653;SDS011;49809;47.418;19.080;2023-11-21T13:55:56;19.37;;;10.60;;
63653;SDS011;49809;47.418;19.080;2023-11-21T13:59:04;21.92;;;10.98;;
63653;SDS011;49809;47.418;19.080;2023-11-21T14:11:00;20.95;;;10.75;;
63653;SDS011;49809;47.418;19.080;2023-11-21T14:18:31;25.30;;;13.90;;
63653;SDS011;49809;47.418;19.080;2023-11-21T14:30:38;24.60;;;13.30;;
63653;SDS011;49809;47.418;19.080;2023-11-21T14:34:16;21.87;;;12.50;;
63653;SDS011;49809;47.418;19.080;2023-11-21T14:46:08;26.15;;;13.57;;
63653;SDS011;49809;47.418;19.080;2023-11-21T14:53:46;27.62;;;13.25;;
63653;SDS011;49809;47.418;19.080;2023-11-21T14:57:16;29.65;;;13.48;;
63653;SDS011;49809;47.418;19.080;2023-11-21T15:01:04;26.12;;;13.95;;
63653;SDS011;49809;47.418;19.080;2023-11-21T15:17:18;23.95;;;13.23;;
63653;SDS011;49809;47.418;19.080;2023-11-21T15:25:36;25.95;;;13.40;;
63653;SDS011;49809;47.418;19.080;2023-11-21T15:29:12;24.83;;;13.00;;
63653;SDS011;49809;47.418;19.080;2023-11-21T15:32:17;21.30;;;12.32;;
63653;SDS011;49809;47.418;19.080;2023-11-21T15:35:44;23.52;;;12.00;;
63653;SDS011;49809;47.418;19.080;2023-11-21T15:39:08;25.62;;;12.80;;
63653;SDS011;49809;47.418;19.080;2023-11-21T15:42:21;26.48;;;13.30;;
63653;SDS011;49809;47.418;19.080;2023-11-21T15:45:52;23.45;;;11.63;;
63653;SDS011;49809;47.418;19.080;2023-11-21T15:48:56;22.23;;;11.88;;
63653;SDS011;49809;47.418;19.080;2023-11-21T15:52:20;19.90;;;10.63;;
63653;SDS011;49809;47.418;19.080;2023-11-21T15:55:24;21.37;;;10.68;;
63653;SDS011;49809;47.418;19.080;2023-11-21T15:58:50;19.98;;;10.85;;
63653;SDS011;49809;47.418;19.080;2023-11-21T16:02:16;24.12;;;10.80;;
63653;SDS011;49809;47.418;19.080;2023-11-21T16:05:25;24.98;;;11.63;;
63653;SDS011;49809;47.418;19.080;2023-11-21T16:08:53;22.10;;;10.82;;
63653;SDS011;49809;47.418;19.080;2023-11-21T16:12:24;20.48;;;10.10;;
63653;SDS011;49809;47.418;19.080;2023-11-21T16:15:48;20.65;;;10.80;;
63653;SDS011;49809;47.418;19.080;2023-11-21T16:18:54;21.40;;;10.63;;
63653;SDS011;49809;47.418;19.080;2023-11-21T16:22:40;18.90;;;10.32;;
63653;SDS011;49809;47.418;19.080;2023-11-21T16:26:06;20.80;;;10.35;;
63653;SDS011;49809;47.418;19.080;2023-11-21T16:29:44;20.23;;;10.85;;
63653;SDS011;49809;47.418;19.080;2023-11-21T16:41:47;19.60;;;10.80;;
63653;SDS011;49809;47.418;19.080;2023-11-21T16:45:21;18.25;;;10.25;;
63653;SDS011;49809;47.418;19.080;2023-11-21T16:48:24;18.60;;;10.02;;
63653;SDS011;49809;47.418;19.080;2023-11-21T16:52:06;19.92;;;10.25;;
63653;SDS011;49809;47.418;19.080;2023-11-21T16:55:21;19.48;;;10.73;;
63653;SDS011;49809;47.418;19.080;2023-11-21T16:59:01;18.65;;;11.07;;
63653;SDS011;49809;47.418;19.080;2023-11-21T17:02:51;23.87;;;11.65;;
63653;SDS011;49809;47.418;19.080;2023-11-21T17:06:26;25.98;;;11.82;;
63653;SDS011;49809;47.418;19.080;2023-11-21T17:10:05;24.85;;;11.15;;
63653;SDS011;49809;47.418;19.080;2023-11-21T17:13:50;18.62;;;9.75;;
63653;SDS011;49809;47.418;19.080;2023-11-21T17:17:21;18.83;;;9.73;;
63653;SDS011;49809;47.418;19.080;2023-11-21T17:21:18;18.85;;;9.95;;
63653;SDS011;49809;47.418;19.080;2023-11-21T17:24:49;15.90;;;9.73;;
63653;SDS011;49809;47.418;19.080;2023-11-21T17:27:58;18.45;;;10.52;;
63653;SDS011;49809;47.418;19.080;2023-11-21T17:31:34;18.35;;;10.10;;
63653;SDS011;49809;47.418;19.080;2023-11-21T17:35:06;19.02;;;10.50;;
63653;SDS011;49809;47.418;19.080;2023-11-21T17:38:51;17.92;;;9.25;;
63653;SDS011;49809;47.418;19.080;2023-11-21T17:42:15;15.05;;;8.48;;
63653;SDS011;49809;47.418;19.080;2023-11-21T17:45:44;19.77;;;9.02;;
63653;SDS011;49809;47.418;19.080;2023-11-21T17:49:18;21.50;;;9.85;;
63653;SDS011;49809;47.418;19.080;2023-11-21T17:52:22;20.92;;;10.10;;
63653;SDS011;49809;47.418;19.080;2023-11-21T17:55:48;22.13;;;11.15;;
63653;SDS011;49809;47.418;19.080;2023-11-21T17:59:35;31.00;;;12.45;;
63653;SDS011;49809;47.418;19.080;2023-11-21T18:03:04;31.92;;;14.00;;
63653;SDS011;49809;47.418;19.080;2023-11-21T18:06:28;38.33;;;14.87;;
63653;SDS011;49809;47.418;19.080;2023-11-21T18:09:52;26.08;;;12.00;;
63653;SDS011;49809;47.418;19.080;2023-11-21T18:13:19;23.85;;;11.50;;
63653;SDS011;49809;47.418;19.080;2023-11-21T18:17:05;17.40;;;9.93;;
63653;SDS011;49809;47.418;19.080;2023-11-21T18:20:31;14.43;;;8.43;;
63653;SDS011;49809;47.418;19.080;2023-11-21T18:23:43;21.20;;;9.90;;
63653;SDS011;49809;47.418;19.080;2023-11-21T18:26:50;17.20;;;8.75;;
63653;SDS011;49809;47.418;19.080;2023-11-21T18:30:01;19.52;;;9.05;;
63653;SDS011;49809;47.418;19.080;2023-11-21T18:33:29;18.67;;;10.23;;
63653;SDS011;49809;47.418;19.080;2023-11-21T18:37:01;24.58;;;9.63;;
63653;SDS011;49809;47.418;19.080;2023-11-21T18:40:25;24.33;;;10.40;;
63653;SDS011;49809;47.418;19.080;2023-11-21T18:44:08;22.15;;;10.05;;
63653;SDS011;49809;47.418;19.080;2023-11-21T18:47:19;21.33;;;9.48;;
63653;SDS011;49809;47.418;19.080;2023-11-21T18:50:46;22.98;;;10.30;;
63653;SDS011;49809;47.418;19.080;2023-11-21T18:54:12;22.13;;;9.52;;
63653;SDS011;49809;47.418;19.080;2023-11-21T18:57:48;17.15;;;8.43;;
63653;SDS011;49809;47.418;19.080;2023-11-21T19:01:28;17.20;;;7.95;;
63653;SDS011;49809;47.418;19.080;2023-11-21T19:04:37;19.10;;;8.70;;
63653;SDS011;49809;47.418;19.080;2023-11-21T19:07:47;23.05;;;11.32;;
63653;SDS011;49809;47.418;19.080;2023-11-21T19:11:30;25.88;;;14.05;;
63653;SDS011;49809;47.418;19.080;2023-11-21T19:15:35;22.23;;;11.63;;
63653;SDS011;49809;47.418;19.080;2023-11-21T19:19:10;23.90;;;11.88;;
63653;SDS011;49809;47.418;19.080;2023-11-21T19:22:35;21.37;;;10.93;;
63653;SDS011;49809;47.418;19.080;2023-11-21T19:26:22;15.93;;;8.75;;
63653;SDS011;49809;47.418;19.080;2023-11-21T19:29:52;16.02;;;7.18;;
63653;SDS011;49809;47.418;19.080;2023-11-21T19:33:16;20.37;;;9.57;;
63653;SDS011;49809;47.418;19.080;2023-11-21T19:36:46;20.75;;;9.15;;
63653;SDS011;49809;47.418;19.080;2023-11-21T19:40:20;20.20;;;12.60;;
63653;SDS011;49809;47.418;19.080;2023-11-21T19:44:20;23.33;;;13.52;;
63653;SDS011;49809;47.418;19.080;2023-11-21T19:47:24;18.90;;;10.93;;
63653;SDS011;49809;47.418;19.080;2023-11-21T19:51:15;21.05;;;9.45;;
63653;SDS011;49809;47.418;19.080;2023-11-21T19:55:12;15.68;;;8.70;;
63653;SDS011;49809;47.418;19.080;2023-11-21T19:58:16;19.52;;;8.68;;
63653;SDS011;49809;47.418;19.080;2023-11-21T20:01:50;17.52;;;8.27;;
63653;SDS011;49809;47.418;19.080;2023-11-21T20:05:14;16.83;;;8.63;;
63653;SDS011;49809;47.418;19.080;2023-11-21T20:08:43;14.90;;;8.23;;
63653;SDS011;49809;47.418;19.080;2023-11-21T20:16:28;18.37;;;9.10;;
63653;SDS011;49809;47.418;19.080;2023-11-21T20:20:00;21.83;;;9.90;;
63653;SDS011;49809;47.418;19.080;2023-11-21T20:23:56;22.58;;;11.25;;
63653;SDS011;49809;47.418;19.080;2023-11-21T20:27:00;27.20;;;12.10;;
63653;SDS011;49809;47.418;19.080;2023-11-21T20:30:34;29.98;;;12.35;;
63653;SDS011;49809;47.418;19.080;2023-11-21T20:33:40;19.92;;;10.15;;
63653;SDS011;49809;47.418;19.080;2023-11-21T20:36:48;24.63;;;11.38;;
63653;SDS011;49809;47.418;19.080;2023-11-21T20:39:55;20.35;;;9.55;;
63653;SDS011;49809;47.418;19.080;2023-11-21T20:43:23;16.58;;;9.93;;
63653;SDS011;49809;47.418;19.080;2023-11-21T20:46:41;22.95;;;10.38;;
63653;SDS011;49809;47.418;19.080;2023-11-21T20:49:46;18.27;;;9.57;;
63653;SDS011;49809;47.418;19.080;2023-11-21T20:53:12;19.87;;;10.25;;
63653;SDS011;49809;47.418;19.080;2023-11-21T20:56:37;28.73;;;13.77;;
63653;SDS011;49809;47.418;19.080;2023-11-21T21:00:04;25.98;;;12.85;;
63653;SDS011;49809;47.418;19.080;2023-11-21T21:03:13;26.30;;;14.18;;
63653;SDS011;49809;47.418;19.080;2023-11-21T21:06:46;25.45;;;11.93;;